Dades de l'estació automàtica la Tallada d'Empordà
Resum diari
21:30 TU| Temperatura mitjana | 18.1 °C | |
|---|---|---|
| Temperatura màxima | 23.7 °C | 12:48 TU |
| Temperatura mínima | 13.6 °C | 3:07 TU |
| Humitat relativa mitjana | 84% | |
| Precipitació acumulada | 1.2 mm | |
| Ratxa màxima del vent (2 m) | 27.7 km/h - 172º | 14:09 TU |
| Irradiació solar global | 18.3 MJ/m2 | |
El tram horari està expressat en Temps Universal (TU). Cal sumar una hora en horari d'hivern i dues en horari d'estiu per passar a l'hora oficial.
la Tallada d'Empordà
| Municipi | La Tallada d'Empordà |
|---|---|
| Comarca | Baix Empordà |
| Altitud | 15 m |
| Data alta | 01.05.1989 |
| Estat actual | Operativa |
| Període TU |
TM °C |
TX °C |
TN °C |
HRM % |
PPT mm |
VVM (2 m) km/h |
DVM (2 m) graus |
VVX (2 m) km/h |
RS W/m2 |
|---|---|---|---|---|---|---|---|---|---|
| 00:00 - 00:30 | 15.7 | 15.7 | 15.6 | 97 | 0.0 | 2.2 | 166 | 5.4 | 0 |
| 00:30 - 01:00 | 15.7 | 15.7 | 15.6 | 97 | 0.0 | 0.7 | 219 | 2.9 | 0 |
| 01:00 - 01:30 | 15.5 | 15.6 | 15.4 | 98 | 0.0 | 0.7 | 160 | 2.5 | 0 |
| 01:30 - 02:00 | 15.4 | 15.5 | 15.4 | 99 | 0.0 | 1.4 | 155 | 3.2 | 0 |
| 02:00 - 02:30 | 15.1 | 15.4 | 14.7 | 99 | 0.0 | 2.2 | 148 | 4.3 | 0 |
| 02:30 - 03:00 | 14.4 | 14.7 | 13.8 | 100 | 0.0 | 0.7 | 192 | 2.5 | 0 |
| 03:00 - 03:30 | 13.9 | 14.1 | 13.6 | 100 | 0.0 | 1.1 | 186 | 3.2 | 0 |
| 03:30 - 04:00 | 14.3 | 14.4 | 14.0 | 100 | 0.0 | 2.2 | 133 | 5.0 | 0 |
| 04:00 - 04:30 | 14.4 | 14.5 | 14.4 | 99 | 0.0 | 2.2 | 130 | 5.4 | 0 |
| 04:30 - 05:00 | 14.4 | 14.6 | 14.4 | 98 | 0.0 | 2.5 | 122 | 5.4 | 5 |
| 05:00 - 05:30 | 14.7 | 14.8 | 14.6 | 96 | 0.0 | 3.6 | 144 | 7.9 | 30 |
| 05:30 - 06:00 | 14.9 | 15.0 | 14.8 | 95 | 0.0 | 1.8 | 212 | 5.0 | 46 |
| 06:00 - 06:30 | 15.7 | 16.9 | 14.9 | 91 | 0.0 | 1.1 | 214 | 5.8 | 170 |
| 06:30 - 07:00 | 17.7 | 18.3 | 17.0 | 80 | 0.0 | 2.2 | 279 | 7.2 | 307 |
| 07:00 - 07:30 | 19.1 | 19.5 | 18.4 | 71 | 0.0 | 6.1 | 174 | 15.8 | 413 |
| 07:30 - 08:00 | 20.2 | 20.8 | 19.6 | 65 | 0.0 | 5.4 | 189 | 14.0 | 512 |
| 08:00 - 08:30 | 20.9 | 21.5 | 20.5 | 62 | 0.0 | 5.4 | 183 | 14.4 | 544 |
| 08:30 - 09:00 | 21.9 | 22.5 | 21.6 | 58 | 0.0 | 6.1 | 166 | 15.5 | 690 |
| 09:00 - 09:30 | 21.9 | 22.3 | 21.6 | 59 | 0.0 | 8.6 | 139 | 18.0 | 489 |
| 09:30 - 10:00 | 21.5 | 21.8 | 21.1 | 66 | 0.0 | 12.2 | 134 | 26.6 | 552 |
| 10:00 - 10:30 | 21.4 | 21.8 | 21.1 | 68 | 0.0 | 11.2 | 132 | 22.7 | 585 |
| 10:30 - 11:00 | 21.3 | 21.5 | 21.2 | 67 | 0.0 | 11.5 | 130 | 23.4 | 535 |
| 11:00 - 11:30 | 21.2 | 21.7 | 20.9 | 67 | 0.0 | 11.9 | 146 | 24.1 | 571 |
| 11:30 - 12:00 | 21.9 | 22.7 | 21.3 | 63 | 0.0 | 10.4 | 155 | 25.2 | 685 |
| 12:00 - 12:30 | 22.3 | 23.2 | 21.7 | 63 | 0.0 | 10.8 | 152 | 22.7 | 760 |
| 12:30 - 13:00 | 23.1 | 23.7 | 22.3 | 61 | 0.0 | 10.8 | 169 | 22.7 | 1.025 |
| 13:00 - 13:30 | 22.5 | 23.1 | 22.0 | 64 | 0.0 | 11.2 | 163 | 26.3 | 677 |
| 13:30 - 14:00 | 21.8 | 22.7 | 20.9 | 65 | 0.0 | 11.9 | 163 | 24.8 | 458 |
| 14:00 - 14:30 | 20.7 | 21.1 | 20.3 | 70 | 0.0 | 10.4 | 169 | 27.7 | 272 |
| 14:30 - 15:00 | 19.9 | 20.5 | 19.5 | 76 | 0.0 | 7.9 | 175 | 23.4 | 147 |
| 15:00 - 15:30 | 19.2 | 19.5 | 19.0 | 81 | 0.0 | 5.4 | 172 | 13.7 | 145 |
| 15:30 - 16:00 | 19.1 | 19.2 | 18.9 | 83 | 0.0 | 4.7 | 188 | 15.1 | 203 |
| 16:00 - 16:30 | 19.1 | 19.3 | 19.0 | 81 | 0.0 | 5.8 | 191 | 16.9 | 115 |
| 16:30 - 17:00 | 19.0 | 19.1 | 18.6 | 80 | 0.1 | 5.0 | 197 | 13.7 | 109 |
| 17:00 - 17:30 | 17.8 | 18.5 | 17.6 | 89 | 0.4 | 4.3 | 179 | 14.8 | 54 |
| 17:30 - 18:00 | 17.6 | 17.7 | 17.4 | 95 | 0.6 | 3.6 | 165 | 9.4 | 75 |
| 18:00 - 18:30 | 17.3 | 17.4 | 17.2 | 97 | 0.1 | 1.8 | 204 | 5.4 | 18 |
| 18:30 - 19:00 | 17.0 | 17.2 | 16.9 | 98 | 0.0 | 1.1 | 204 | 5.8 | 6 |
| 19:00 - 19:30 | 16.7 | 16.9 | 16.6 | 96 | 0.0 | 2.5 | 186 | 9.7 | 0 |
| 19:30 - 20:00 | 16.5 | 16.6 | 16.4 | 97 | 0.0 | 1.4 | 158 | 5.4 | 0 |
| 20:00 - 20:30 | 16.4 | 16.5 | 16.4 | 98 | 0.0 | 1.4 | 52 | 3.6 | 0 |
| 20:30 - 21:00 | 16.4 | 16.5 | 16.3 | 97 | 0.0 | 1.4 | 159 | 5.8 | 0 |
| 21:00 - 21:30 | 16.4 | 16.6 | 16.3 | 96 | 0.0 | 0.7 | 98 | 4.3 | 0 |
| 21:30 - 22:00 | 16.2 | 16.5 | 15.8 | 98 | 0.0 | 0.4 | 162 | 1.8 | 0 |
Les dades en taronja només han passat un control de qualitat automàtic. Resta pendent la seva validació definitiva.